sensor_id;sensor_type;location;lat;lon;timestamp;P1;durP1;ratioP1;P2;durP2;ratioP2
12884;SDS011;6510;51.362;7.370;2023-01-15T00:00:13;7.40;;;1.20;;
12884;SDS011;6510;51.362;7.370;2023-01-15T00:02:39;5.43;;;1.40;;
12884;SDS011;6510;51.362;7.370;2023-01-15T00:05:05;2.93;;;0.90;;
12884;SDS011;6510;51.362;7.370;2023-01-15T00:07:31;1.47;;;0.87;;
12884;SDS011;6510;51.362;7.370;2023-01-15T00:09:57;2.53;;;0.93;;
12884;SDS011;6510;51.362;7.370;2023-01-15T00:12:22;3.90;;;1.20;;
12884;SDS011;6510;51.362;7.370;2023-01-15T00:14:48;2.83;;;1.00;;
12884;SDS011;6510;51.362;7.370;2023-01-15T00:17:14;4.00;;;1.30;;
12884;SDS011;6510;51.362;7.370;2023-01-15T00:19:39;2.10;;;1.20;;
12884;SDS011;6510;51.362;7.370;2023-01-15T00:22:05;7.30;;;1.63;;
12884;SDS011;6510;51.362;7.370;2023-01-15T00:24:31;2.50;;;1.23;;
12884;SDS011;6510;51.362;7.370;2023-01-15T00:27:15;2.80;;;1.13;;
12884;SDS011;6510;51.362;7.370;2023-01-15T00:29:59;3.53;;;1.20;;
12884;SDS011;6510;51.362;7.370;2023-01-15T00:32:24;5.27;;;1.47;;
12884;SDS011;6510;51.362;7.370;2023-01-15T00:34:51;4.30;;;1.40;;
12884;SDS011;6510;51.362;7.370;2023-01-15T00:37:17;3.90;;;1.17;;
12884;SDS011;6510;51.362;7.370;2023-01-15T00:39:43;3.63;;;1.20;;
12884;SDS011;6510;51.362;7.370;2023-01-15T00:42:09;3.20;;;1.40;;
12884;SDS011;6510;51.362;7.370;2023-01-15T00:44:36;6.03;;;1.80;;
12884;SDS011;6510;51.362;7.370;2023-01-15T00:47:01;5.60;;;2.23;;
12884;SDS011;6510;51.362;7.370;2023-01-15T00:49:27;8.63;;;2.57;;
12884;SDS011;6510;51.362;7.370;2023-01-15T00:51:53;5.47;;;3.00;;
12884;SDS011;6510;51.362;7.370;2023-01-15T00:54:18;7.50;;;3.03;;
12884;SDS011;6510;51.362;7.370;2023-01-15T00:56:44;5.87;;;2.70;;
12884;SDS011;6510;51.362;7.370;2023-01-15T00:59:10;4.80;;;2.73;;
12884;SDS011;6510;51.362;7.370;2023-01-15T01:01:36;4.60;;;2.53;;
12884;SDS011;6510;51.362;7.370;2023-01-15T01:04:02;4.00;;;2.20;;
12884;SDS011;6510;51.362;7.370;2023-01-15T01:06:27;2.47;;;1.70;;
12884;SDS011;6510;51.362;7.370;2023-01-15T01:08:53;2.10;;;1.53;;
12884;SDS011;6510;51.362;7.370;2023-01-15T01:11:20;2.93;;;1.50;;
12884;SDS011;6510;51.362;7.370;2023-01-15T01:13:50;2.33;;;1.40;;
12884;SDS011;6510;51.362;7.370;2023-01-15T01:16:26;2.13;;;1.30;;
12884;SDS011;6510;51.362;7.370;2023-01-15T01:18:54;2.30;;;1.30;;
12884;SDS011;6510;51.362;7.370;2023-01-15T01:21:22;0.97;;;0.80;;
12884;SDS011;6510;51.362;7.370;2023-01-15T01:23:48;1.03;;;0.80;;
12884;SDS011;6510;51.362;7.370;2023-01-15T01:26:13;2.20;;;0.90;;
12884;SDS011;6510;51.362;7.370;2023-01-15T01:28:40;1.30;;;0.70;;
12884;SDS011;6510;51.362;7.370;2023-01-15T01:31:07;0.70;;;0.70;;
12884;SDS011;6510;51.362;7.370;2023-01-15T01:33:33;0.80;;;0.47;;
12884;SDS011;6510;51.362;7.370;2023-01-15T01:35:59;2.37;;;0.70;;
12884;SDS011;6510;51.362;7.370;2023-01-15T01:38:25;2.07;;;0.70;;
12884;SDS011;6510;51.362;7.370;2023-01-15T01:40:51;2.37;;;0.60;;
12884;SDS011;6510;51.362;7.370;2023-01-15T01:43:20;3.93;;;0.77;;
12884;SDS011;6510;51.362;7.370;2023-01-15T01:45:51;0.77;;;0.40;;
12884;SDS011;6510;51.362;7.370;2023-01-15T01:48:17;1.40;;;0.63;;
12884;SDS011;6510;51.362;7.370;2023-01-15T01:50:48;3.03;;;0.67;;
12884;SDS011;6510;51.362;7.370;2023-01-15T01:53:22;0.47;;;0.47;;
12884;SDS011;6510;51.362;7.370;2023-01-15T01:55:51;2.00;;;0.60;;
12884;SDS011;6510;51.362;7.370;2023-01-15T01:58:18;1.93;;;1.00;;
12884;SDS011;6510;51.362;7.370;2023-01-15T02:00:46;0.53;;;0.30;;
12884;SDS011;6510;51.362;7.370;2023-01-15T02:03:14;1.13;;;0.70;;
12884;SDS011;6510;51.362;7.370;2023-01-15T02:05:53;1.53;;;0.53;;
12884;SDS011;6510;51.362;7.370;2023-01-15T02:08:21;0.70;;;0.40;;
12884;SDS011;6510;51.362;7.370;2023-01-15T02:10:49;1.07;;;0.30;;
12884;SDS011;6510;51.362;7.370;2023-01-15T02:16:06;1.23;;;0.47;;
12884;SDS011;6510;51.362;7.370;2023-01-15T02:24:57;0.83;;;0.53;;
12884;SDS011;6510;51.362;7.370;2023-01-15T02:27:37;0.90;;;0.70;;
12884;SDS011;6510;51.362;7.370;2023-01-15T02:30:15;0.87;;;0.60;;
12884;SDS011;6510;51.362;7.370;2023-01-15T02:32:52;0.87;;;0.53;;
12884;SDS011;6510;51.362;7.370;2023-01-15T02:37:56;3.53;;;0.80;;
12884;SDS011;6510;51.362;7.370;2023-01-15T02:40:25;1.20;;;0.77;;
12884;SDS011;6510;51.362;7.370;2023-01-15T02:42:52;1.40;;;0.67;;
12884;SDS011;6510;51.362;7.370;2023-01-15T02:45:21;4.17;;;0.73;;
12884;SDS011;6510;51.362;7.370;2023-01-15T02:47:55;2.33;;;0.70;;
12884;SDS011;6510;51.362;7.370;2023-01-15T02:50:26;2.30;;;0.63;;
12884;SDS011;6510;51.362;7.370;2023-01-15T02:52:57;2.63;;;0.90;;
12884;SDS011;6510;51.362;7.370;2023-01-15T02:55:28;0.77;;;0.63;;
12884;SDS011;6510;51.362;7.370;2023-01-15T02:57:58;1.23;;;0.80;;
12884;SDS011;6510;51.362;7.370;2023-01-15T03:00:28;1.33;;;0.70;;
12884;SDS011;6510;51.362;7.370;2023-01-15T03:02:58;3.43;;;0.90;;
12884;SDS011;6510;51.362;7.370;2023-01-15T03:08:34;1.13;;;0.50;;
12884;SDS011;6510;51.362;7.370;2023-01-15T03:11:05;2.63;;;0.60;;
12884;SDS011;6510;51.362;7.370;2023-01-15T03:16:34;1.60;;;0.80;;
12884;SDS011;6510;51.362;7.370;2023-01-15T03:22:12;2.63;;;0.63;;
12884;SDS011;6510;51.362;7.370;2023-01-15T03:25:05;2.53;;;0.67;;
12884;SDS011;6510;51.362;7.370;2023-01-15T03:27:35;2.47;;;0.83;;
12884;SDS011;6510;51.362;7.370;2023-01-15T03:30:09;1.77;;;0.70;;
12884;SDS011;6510;51.362;7.370;2023-01-15T03:32:39;1.33;;;0.60;;
12884;SDS011;6510;51.362;7.370;2023-01-15T03:35:06;3.20;;;0.90;;
12884;SDS011;6510;51.362;7.370;2023-01-15T03:37:52;2.83;;;0.73;;
12884;SDS011;6510;51.362;7.370;2023-01-15T03:40:18;5.07;;;0.93;;
12884;SDS011;6510;51.362;7.370;2023-01-15T03:42:56;1.17;;;0.50;;
12884;SDS011;6510;51.362;7.370;2023-01-15T03:46:13;1.37;;;0.53;;
12884;SDS011;6510;51.362;7.370;2023-01-15T03:51:50;2.83;;;0.63;;
12884;SDS011;6510;51.362;7.370;2023-01-15T03:54:32;2.50;;;0.80;;
12884;SDS011;6510;51.362;7.370;2023-01-15T03:57:13;3.13;;;0.70;;
12884;SDS011;6510;51.362;7.370;2023-01-15T03:59:50;2.10;;;0.60;;
12884;SDS011;6510;51.362;7.370;2023-01-15T04:02:19;2.30;;;0.80;;
12884;SDS011;6510;51.362;7.370;2023-01-15T04:04:47;1.30;;;0.40;;
12884;SDS011;6510;51.362;7.370;2023-01-15T04:07:14;2.90;;;0.77;;
12884;SDS011;6510;51.362;7.370;2023-01-15T04:09:40;0.80;;;0.50;;
12884;SDS011;6510;51.362;7.370;2023-01-15T04:12:06;1.60;;;0.63;;
12884;SDS011;6510;51.362;7.370;2023-01-15T04:14:32;2.40;;;0.70;;
12884;SDS011;6510;51.362;7.370;2023-01-15T04:16:58;1.63;;;0.90;;
12884;SDS011;6510;51.362;7.370;2023-01-15T04:19:24;3.17;;;0.80;;
12884;SDS011;6510;51.362;7.370;2023-01-15T04:21:50;0.77;;;0.67;;
12884;SDS011;6510;51.362;7.370;2023-01-15T04:24:15;1.87;;;0.90;;
12884;SDS011;6510;51.362;7.370;2023-01-15T04:26:41;2.23;;;0.70;;
12884;SDS011;6510;51.362;7.370;2023-01-15T04:29:07;2.57;;;0.70;;
12884;SDS011;6510;51.362;7.370;2023-01-15T04:31:32;5.23;;;0.80;;
12884;SDS011;6510;51.362;7.370;2023-01-15T04:34:00;5.27;;;0.93;;
12884;SDS011;6510;51.362;7.370;2023-01-15T04:36:29;2.60;;;0.67;;
12884;SDS011;6510;51.362;7.370;2023-01-15T04:38:54;2.00;;;1.00;;
12884;SDS011;6510;51.362;7.370;2023-01-15T04:41:22;2.60;;;0.67;;
12884;SDS011;6510;51.362;7.370;2023-01-15T04:44:06;3.07;;;0.97;;
12884;SDS011;6510;51.362;7.370;2023-01-15T04:46:33;1.20;;;0.83;;
12884;SDS011;6510;51.362;7.370;2023-01-15T04:49:00;2.80;;;0.90;;
12884;SDS011;6510;51.362;7.370;2023-01-15T04:51:26;2.67;;;1.03;;
12884;SDS011;6510;51.362;7.370;2023-01-15T04:53:52;3.27;;;0.60;;
12884;SDS011;6510;51.362;7.370;2023-01-15T04:56:17;3.63;;;1.17;;
12884;SDS011;6510;51.362;7.370;2023-01-15T04:58:43;2.07;;;0.80;;
12884;SDS011;6510;51.362;7.370;2023-01-15T05:01:10;3.97;;;1.03;;
12884;SDS011;6510;51.362;7.370;2023-01-15T05:03:40;3.53;;;0.90;;
12884;SDS011;6510;51.362;7.370;2023-01-15T05:06:06;2.63;;;0.80;;
12884;SDS011;6510;51.362;7.370;2023-01-15T05:08:32;4.47;;;0.77;;
12884;SDS011;6510;51.362;7.370;2023-01-15T05:11:01;2.63;;;0.93;;
12884;SDS011;6510;51.362;7.370;2023-01-15T05:13:28;5.87;;;1.07;;
12884;SDS011;6510;51.362;7.370;2023-01-15T05:15:56;4.13;;;0.87;;
12884;SDS011;6510;51.362;7.370;2023-01-15T05:18:21;4.27;;;1.10;;
12884;SDS011;6510;51.362;7.370;2023-01-15T05:20:47;3.80;;;0.80;;
12884;SDS011;6510;51.362;7.370;2023-01-15T05:23:13;5.40;;;1.20;;
12884;SDS011;6510;51.362;7.370;2023-01-15T05:25:38;1.47;;;0.70;;
12884;SDS011;6510;51.362;7.370;2023-01-15T05:28:04;3.37;;;0.83;;
12884;SDS011;6510;51.362;7.370;2023-01-15T05:30:29;2.30;;;0.90;;
12884;SDS011;6510;51.362;7.370;2023-01-15T05:32:55;4.17;;;1.90;;
12884;SDS011;6510;51.362;7.370;2023-01-15T05:35:20;5.33;;;1.53;;
12884;SDS011;6510;51.362;7.370;2023-01-15T05:37:46;2.03;;;0.90;;
12884;SDS011;6510;51.362;7.370;2023-01-15T05:40:12;2.93;;;1.17;;
12884;SDS011;6510;51.362;7.370;2023-01-15T05:42:37;4.60;;;1.03;;
12884;SDS011;6510;51.362;7.370;2023-01-15T05:45:03;2.53;;;1.07;;
12884;SDS011;6510;51.362;7.370;2023-01-15T05:47:29;1.20;;;1.00;;
12884;SDS011;6510;51.362;7.370;2023-01-15T05:49:54;3.57;;;0.90;;
12884;SDS011;6510;51.362;7.370;2023-01-15T05:52:20;1.67;;;0.80;;
12884;SDS011;6510;51.362;7.370;2023-01-15T05:54:47;3.77;;;1.40;;
12884;SDS011;6510;51.362;7.370;2023-01-15T05:57:13;4.27;;;1.00;;
12884;SDS011;6510;51.362;7.370;2023-01-15T05:59:39;5.30;;;1.20;;
12884;SDS011;6510;51.362;7.370;2023-01-15T06:02:05;4.23;;;1.03;;
12884;SDS011;6510;51.362;7.370;2023-01-15T06:04:31;4.87;;;1.10;;
12884;SDS011;6510;51.362;7.370;2023-01-15T06:06:57;6.87;;;1.20;;
12884;SDS011;6510;51.362;7.370;2023-01-15T06:09:23;4.20;;;1.27;;
12884;SDS011;6510;51.362;7.370;2023-01-15T06:11:51;6.63;;;1.10;;
12884;SDS011;6510;51.362;7.370;2023-01-15T06:14:18;3.43;;;0.87;;
12884;SDS011;6510;51.362;7.370;2023-01-15T06:16:44;6.00;;;1.30;;
12884;SDS011;6510;51.362;7.370;2023-01-15T06:19:10;6.33;;;1.33;;
12884;SDS011;6510;51.362;7.370;2023-01-15T06:21:37;4.47;;;1.47;;
12884;SDS011;6510;51.362;7.370;2023-01-15T06:24:03;4.80;;;1.33;;
12884;SDS011;6510;51.362;7.370;2023-01-15T06:26:29;6.33;;;1.40;;
12884;SDS011;6510;51.362;7.370;2023-01-15T06:28:54;6.00;;;1.67;;
12884;SDS011;6510;51.362;7.370;2023-01-15T06:31:20;2.13;;;1.27;;
12884;SDS011;6510;51.362;7.370;2023-01-15T06:33:47;5.10;;;1.43;;
12884;SDS011;6510;51.362;7.370;2023-01-15T06:36:14;5.57;;;1.40;;
12884;SDS011;6510;51.362;7.370;2023-01-15T06:38:41;5.07;;;1.60;;
12884;SDS011;6510;51.362;7.370;2023-01-15T06:41:08;4.23;;;1.47;;
12884;SDS011;6510;51.362;7.370;2023-01-15T06:43:56;6.43;;;1.47;;
12884;SDS011;6510;51.362;7.370;2023-01-15T06:46:42;5.27;;;2.70;;
12884;SDS011;6510;51.362;7.370;2023-01-15T06:49:29;6.83;;;3.27;;
12884;SDS011;6510;51.362;7.370;2023-01-15T06:51:55;9.17;;;2.60;;
12884;SDS011;6510;51.362;7.370;2023-01-15T06:54:20;5.43;;;1.60;;
12884;SDS011;6510;51.362;7.370;2023-01-15T06:56:46;4.20;;;1.50;;
12884;SDS011;6510;51.362;7.370;2023-01-15T06:59:11;7.17;;;2.03;;
12884;SDS011;6510;51.362;7.370;2023-01-15T07:01:37;3.87;;;1.60;;
12884;SDS011;6510;51.362;7.370;2023-01-15T07:04:03;6.23;;;1.53;;
12884;SDS011;6510;51.362;7.370;2023-01-15T07:06:28;5.60;;;2.03;;
12884;SDS011;6510;51.362;7.370;2023-01-15T07:08:54;7.73;;;1.77;;
12884;SDS011;6510;51.362;7.370;2023-01-15T07:11:19;7.80;;;1.97;;
12884;SDS011;6510;51.362;7.370;2023-01-15T07:13:45;5.37;;;1.43;;
12884;SDS011;6510;51.362;7.370;2023-01-15T07:16:11;6.30;;;1.20;;
12884;SDS011;6510;51.362;7.370;2023-01-15T07:18:52;5.20;;;1.37;;
12884;SDS011;6510;51.362;7.370;2023-01-15T07:21:19;4.47;;;1.17;;
12884;SDS011;6510;51.362;7.370;2023-01-15T07:23:45;3.00;;;1.20;;
12884;SDS011;6510;51.362;7.370;2023-01-15T07:26:10;4.63;;;2.03;;
12884;SDS011;6510;51.362;7.370;2023-01-15T07:28:36;5.47;;;1.37;;
12884;SDS011;6510;51.362;7.370;2023-01-15T07:31:04;5.90;;;1.77;;
12884;SDS011;6510;51.362;7.370;2023-01-15T07:33:30;5.63;;;1.27;;
12884;SDS011;6510;51.362;7.370;2023-01-15T07:35:55;6.40;;;1.83;;
12884;SDS011;6510;51.362;7.370;2023-01-15T07:38:21;6.83;;;2.30;;
12884;SDS011;6510;51.362;7.370;2023-01-15T07:40:47;4.43;;;2.03;;
12884;SDS011;6510;51.362;7.370;2023-01-15T07:43:33;7.70;;;2.17;;
12884;SDS011;6510;51.362;7.370;2023-01-15T07:46:17;4.97;;;1.10;;
12884;SDS011;6510;51.362;7.370;2023-01-15T07:49:01;5.40;;;1.70;;
12884;SDS011;6510;51.362;7.370;2023-01-15T07:51:46;4.57;;;1.47;;
12884;SDS011;6510;51.362;7.370;2023-01-15T07:54:11;4.90;;;1.53;;
12884;SDS011;6510;51.362;7.370;2023-01-15T07:56:37;4.17;;;1.30;;
12884;SDS011;6510;51.362;7.370;2023-01-15T07:59:03;4.23;;;1.30;;
12884;SDS011;6510;51.362;7.370;2023-01-15T08:01:28;3.33;;;1.47;;
12884;SDS011;6510;51.362;7.370;2023-01-15T08:03:54;5.20;;;1.30;;
12884;SDS011;6510;51.362;7.370;2023-01-15T08:06:19;6.20;;;1.30;;
12884;SDS011;6510;51.362;7.370;2023-01-15T08:08:45;6.03;;;1.70;;
12884;SDS011;6510;51.362;7.370;2023-01-15T08:11:11;6.03;;;1.70;;
12884;SDS011;6510;51.362;7.370;2023-01-15T08:13:55;3.40;;;1.13;;
12884;SDS011;6510;51.362;7.370;2023-01-15T08:16:39;4.67;;;1.93;;
12884;SDS011;6510;51.362;7.370;2023-01-15T08:19:04;3.37;;;1.20;;
12884;SDS011;6510;51.362;7.370;2023-01-15T08:21:30;4.80;;;1.30;;
12884;SDS011;6510;51.362;7.370;2023-01-15T08:23:56;2.17;;;0.93;;
12884;SDS011;6510;51.362;7.370;2023-01-15T08:26:21;6.00;;;1.60;;
12884;SDS011;6510;51.362;7.370;2023-01-15T08:28:47;3.70;;;1.20;;
12884;SDS011;6510;51.362;7.370;2023-01-15T08:31:12;4.10;;;1.30;;
12884;SDS011;6510;51.362;7.370;2023-01-15T08:33:38;2.63;;;1.57;;
12884;SDS011;6510;51.362;7.370;2023-01-15T08:36:03;6.43;;;1.70;;
12884;SDS011;6510;51.362;7.370;2023-01-15T08:38:29;6.00;;;1.73;;
12884;SDS011;6510;51.362;7.370;2023-01-15T08:40:55;4.53;;;1.40;;
12884;SDS011;6510;51.362;7.370;2023-01-15T08:43:24;4.53;;;1.50;;
12884;SDS011;6510;51.362;7.370;2023-01-15T08:45:51;3.43;;;1.33;;
12884;SDS011;6510;51.362;7.370;2023-01-15T08:48:17;4.03;;;1.20;;
12884;SDS011;6510;51.362;7.370;2023-01-15T08:50:42;4.57;;;1.77;;
12884;SDS011;6510;51.362;7.370;2023-01-15T08:53:08;6.80;;;1.40;;
12884;SDS011;6510;51.362;7.370;2023-01-15T08:55:33;2.37;;;0.93;;
12884;SDS011;6510;51.362;7.370;2023-01-15T08:58:01;5.57;;;1.30;;
12884;SDS011;6510;51.362;7.370;2023-01-15T09:00:26;4.37;;;1.00;;
12884;SDS011;6510;51.362;7.370;2023-01-15T09:02:52;2.60;;;0.87;;
12884;SDS011;6510;51.362;7.370;2023-01-15T09:05:17;3.17;;;1.07;;
12884;SDS011;6510;51.362;7.370;2023-01-15T09:07:43;3.53;;;0.80;;
12884;SDS011;6510;51.362;7.370;2023-01-15T09:10:09;3.77;;;0.93;;
12884;SDS011;6510;51.362;7.370;2023-01-15T09:12:35;4.27;;;1.73;;
12884;SDS011;6510;51.362;7.370;2023-01-15T09:15:00;4.73;;;1.60;;
12884;SDS011;6510;51.362;7.370;2023-01-15T09:17:26;2.03;;;1.10;;
12884;SDS011;6510;51.362;7.370;2023-01-15T09:19:52;4.80;;;1.07;;
12884;SDS011;6510;51.362;7.370;2023-01-15T09:22:18;2.67;;;1.00;;
12884;SDS011;6510;51.362;7.370;2023-01-15T09:24:43;2.73;;;0.80;;
12884;SDS011;6510;51.362;7.370;2023-01-15T09:27:12;2.37;;;0.80;;
12884;SDS011;6510;51.362;7.370;2023-01-15T09:29:38;3.80;;;1.00;;
12884;SDS011;6510;51.362;7.370;2023-01-15T09:32:04;2.43;;;1.00;;
12884;SDS011;6510;51.362;7.370;2023-01-15T09:34:29;1.63;;;0.80;;
12884;SDS011;6510;51.362;7.370;2023-01-15T09:36:55;2.17;;;0.93;;
12884;SDS011;6510;51.362;7.370;2023-01-15T09:39:21;2.17;;;0.97;;
12884;SDS011;6510;51.362;7.370;2023-01-15T09:41:53;1.40;;;0.67;;
12884;SDS011;6510;51.362;7.370;2023-01-15T09:49:59;5.50;;;1.00;;
12884;SDS011;6510;51.362;7.370;2023-01-15T09:55:14;2.43;;;0.90;;
12884;SDS011;6510;51.362;7.370;2023-01-15T09:57:41;4.27;;;1.00;;
12884;SDS011;6510;51.362;7.370;2023-01-15T10:00:12;2.37;;;0.90;;
12884;SDS011;6510;51.362;7.370;2023-01-15T10:03:04;2.60;;;0.80;;
12884;SDS011;6510;51.362;7.370;2023-01-15T10:05:55;3.07;;;0.97;;
12884;SDS011;6510;51.362;7.370;2023-01-15T10:08:36;2.50;;;1.00;;
12884;SDS011;6510;51.362;7.370;2023-01-15T10:13:48;4.47;;;1.10;;
12884;SDS011;6510;51.362;7.370;2023-01-15T10:16:20;2.80;;;1.10;;
12884;SDS011;6510;51.362;7.370;2023-01-15T10:18:47;3.73;;;1.23;;
12884;SDS011;6510;51.362;7.370;2023-01-15T10:29:18;4.73;;;1.17;;
12884;SDS011;6510;51.362;7.370;2023-01-15T10:31:53;5.10;;;1.13;;
12884;SDS011;6510;51.362;7.370;2023-01-15T10:34:27;3.63;;;1.37;;
12884;SDS011;6510;51.362;7.370;2023-01-15T10:37:17;4.20;;;1.10;;
12884;SDS011;6510;51.362;7.370;2023-01-15T10:40:04;2.80;;;1.20;;
12884;SDS011;6510;51.362;7.370;2023-01-15T10:42:38;4.73;;;1.27;;
12884;SDS011;6510;51.362;7.370;2023-01-15T10:47:40;6.70;;;1.67;;
12884;SDS011;6510;51.362;7.370;2023-01-15T10:50:13;6.17;;;1.20;;
12884;SDS011;6510;51.362;7.370;2023-01-15T10:52:42;5.90;;;1.27;;
12884;SDS011;6510;51.362;7.370;2023-01-15T10:55:16;5.60;;;1.00;;
12884;SDS011;6510;51.362;7.370;2023-01-15T11:00:13;5.80;;;1.10;;
12884;SDS011;6510;51.362;7.370;2023-01-15T11:02:43;2.10;;;1.13;;
12884;SDS011;6510;51.362;7.370;2023-01-15T11:05:32;4.70;;;1.40;;
12884;SDS011;6510;51.362;7.370;2023-01-15T11:08:00;3.77;;;1.10;;
12884;SDS011;6510;51.362;7.370;2023-01-15T11:10:30;6.93;;;1.30;;
12884;SDS011;6510;51.362;7.370;2023-01-15T11:12:57;5.97;;;1.53;;
12884;SDS011;6510;51.362;7.370;2023-01-15T11:15:59;5.03;;;1.17;;
12884;SDS011;6510;51.362;7.370;2023-01-15T11:18:43;7.40;;;1.40;;
12884;SDS011;6510;51.362;7.370;2023-01-15T11:21:29;13.30;;;5.50;;
12884;SDS011;6510;51.362;7.370;2023-01-15T11:23:56;6.67;;;3.13;;
12884;SDS011;6510;51.362;7.370;2023-01-15T11:26:24;2.80;;;1.40;;
12884;SDS011;6510;51.362;7.370;2023-01-15T11:28:56;3.50;;;1.10;;
12884;SDS011;6510;51.362;7.370;2023-01-15T11:31:36;3.03;;;0.93;;
12884;SDS011;6510;51.362;7.370;2023-01-15T11:34:04;4.73;;;1.10;;
12884;SDS011;6510;51.362;7.370;2023-01-15T11:36:59;4.67;;;1.50;;
12884;SDS011;6510;51.362;7.370;2023-01-15T11:39:27;6.77;;;1.37;;
12884;SDS011;6510;51.362;7.370;2023-01-15T11:42:02;2.77;;;1.30;;
12884;SDS011;6510;51.362;7.370;2023-01-15T11:44:56;7.33;;;1.57;;
12884;SDS011;6510;51.362;7.370;2023-01-15T11:47:53;3.73;;;1.30;;
12884;SDS011;6510;51.362;7.370;2023-01-15T11:50:49;3.13;;;0.90;;
12884;SDS011;6510;51.362;7.370;2023-01-15T11:53:27;5.33;;;1.27;;
12884;SDS011;6510;51.362;7.370;2023-01-15T11:56:00;7.07;;;1.27;;
12884;SDS011;6510;51.362;7.370;2023-01-15T11:58:38;3.10;;;1.47;;
12884;SDS011;6510;51.362;7.370;2023-01-15T12:01:07;6.90;;;1.20;;
12884;SDS011;6510;51.362;7.370;2023-01-15T12:03:36;5.70;;;1.60;;
12884;SDS011;6510;51.362;7.370;2023-01-15T12:06:05;7.50;;;1.53;;
12884;SDS011;6510;51.362;7.370;2023-01-15T12:08:42;5.53;;;1.40;;
12884;SDS011;6510;51.362;7.370;2023-01-15T12:11:19;5.33;;;1.40;;
12884;SDS011;6510;51.362;7.370;2023-01-15T12:14:16;6.33;;;1.50;;
12884;SDS011;6510;51.362;7.370;2023-01-15T12:25:13;3.23;;;1.10;;
12884;SDS011;6510;51.362;7.370;2023-01-15T12:27:58;5.20;;;1.50;;
12884;SDS011;6510;51.362;7.370;2023-01-15T12:30:43;3.47;;;1.57;;
12884;SDS011;6510;51.362;7.370;2023-01-15T12:33:15;6.47;;;1.10;;
12884;SDS011;6510;51.362;7.370;2023-01-15T12:36:01;3.53;;;1.00;;
12884;SDS011;6510;51.362;7.370;2023-01-15T12:38:39;6.57;;;1.07;;
12884;SDS011;6510;51.362;7.370;2023-01-15T12:41:12;2.60;;;1.00;;
12884;SDS011;6510;51.362;7.370;2023-01-15T12:43:42;6.17;;;1.30;;
12884;SDS011;6510;51.362;7.370;2023-01-15T12:46:30;4.80;;;1.20;;
12884;SDS011;6510;51.362;7.370;2023-01-15T12:52:07;2.47;;;1.10;;
12884;SDS011;6510;51.362;7.370;2023-01-15T12:54:38;3.27;;;0.90;;
12884;SDS011;6510;51.362;7.370;2023-01-15T12:59:46;3.83;;;1.20;;
12884;SDS011;6510;51.362;7.370;2023-01-15T13:02:41;2.73;;;0.97;;
12884;SDS011;6510;51.362;7.370;2023-01-15T13:05:47;4.33;;;1.10;;
12884;SDS011;6510;51.362;7.370;2023-01-15T13:11:10;2.17;;;0.70;;
12884;SDS011;6510;51.362;7.370;2023-01-15T13:13:41;4.63;;;1.23;;
12884;SDS011;6510;51.362;7.370;2023-01-15T13:16:16;3.87;;;1.43;;
12884;SDS011;6510;51.362;7.370;2023-01-15T13:18:50;2.07;;;0.70;;
12884;SDS011;6510;51.362;7.370;2023-01-15T13:21:29;5.63;;;1.07;;
12884;SDS011;6510;51.362;7.370;2023-01-15T13:29:54;0.80;;;0.73;;
12884;SDS011;6510;51.362;7.370;2023-01-15T13:32:24;3.60;;;1.00;;
12884;SDS011;6510;51.362;7.370;2023-01-15T13:34:55;2.50;;;0.77;;
12884;SDS011;6510;51.362;7.370;2023-01-15T13:37:53;4.07;;;0.93;;
12884;SDS011;6510;51.362;7.370;2023-01-15T13:43:04;2.70;;;1.07;;
12884;SDS011;6510;51.362;7.370;2023-01-15T13:45:42;2.63;;;0.60;;
12884;SDS011;6510;51.362;7.370;2023-01-15T13:48:22;2.40;;;1.03;;
12884;SDS011;6510;51.362;7.370;2023-01-15T13:50:52;3.17;;;1.20;;
12884;SDS011;6510;51.362;7.370;2023-01-15T13:53:29;2.10;;;1.00;;
12884;SDS011;6510;51.362;7.370;2023-01-15T13:56:04;2.97;;;0.90;;
12884;SDS011;6510;51.362;7.370;2023-01-15T13:58:56;3.03;;;1.33;;
12884;SDS011;6510;51.362;7.370;2023-01-15T14:06:46;4.20;;;1.07;;
12884;SDS011;6510;51.362;7.370;2023-01-15T14:12:01;4.97;;;1.13;;
12884;SDS011;6510;51.362;7.370;2023-01-15T14:20:14;2.83;;;0.90;;
12884;SDS011;6510;51.362;7.370;2023-01-15T14:31:23;2.97;;;1.13;;
12884;SDS011;6510;51.362;7.370;2023-01-15T14:42:13;1.87;;;1.10;;
12884;SDS011;6510;51.362;7.370;2023-01-15T14:45:06;9.60;;;3.80;;
12884;SDS011;6510;51.362;7.370;2023-01-15T14:55:40;9.60;;;3.77;;
12884;SDS011;6510;51.362;7.370;2023-01-15T14:58:24;4.73;;;2.23;;
12884;SDS011;6510;51.362;7.370;2023-01-15T15:01:16;5.17;;;1.17;;
12884;SDS011;6510;51.362;7.370;2023-01-15T15:03:49;4.10;;;1.30;;
12884;SDS011;6510;51.362;7.370;2023-01-15T15:06:18;1.90;;;1.13;;
12884;SDS011;6510;51.362;7.370;2023-01-15T15:08:45;4.70;;;1.33;;
12884;SDS011;6510;51.362;7.370;2023-01-15T15:11:35;2.43;;;1.17;;
12884;SDS011;6510;51.362;7.370;2023-01-15T15:14:28;1.80;;;0.90;;
12884;SDS011;6510;51.362;7.370;2023-01-15T15:16:56;1.33;;;0.80;;
12884;SDS011;6510;51.362;7.370;2023-01-15T15:21:50;4.13;;;1.40;;
12884;SDS011;6510;51.362;7.370;2023-01-15T15:24:21;4.10;;;1.47;;
12884;SDS011;6510;51.362;7.370;2023-01-15T15:26:56;3.40;;;1.00;;
12884;SDS011;6510;51.362;7.370;2023-01-15T15:29:41;2.30;;;1.10;;
12884;SDS011;6510;51.362;7.370;2023-01-15T15:32:07;1.13;;;1.00;;
12884;SDS011;6510;51.362;7.370;2023-01-15T15:34:50;5.87;;;1.20;;
12884;SDS011;6510;51.362;7.370;2023-01-15T15:37:18;6.27;;;1.57;;
12884;SDS011;6510;51.362;7.370;2023-01-15T15:39:52;7.93;;;1.70;;
12884;SDS011;6510;51.362;7.370;2023-01-15T15:42:33;5.33;;;1.63;;
12884;SDS011;6510;51.362;7.370;2023-01-15T15:45:24;2.73;;;1.27;;
12884;SDS011;6510;51.362;7.370;2023-01-15T15:48:13;2.30;;;1.03;;
12884;SDS011;6510;51.362;7.370;2023-01-15T15:51:01;4.10;;;1.60;;
12884;SDS011;6510;51.362;7.370;2023-01-15T15:53:29;2.13;;;1.10;;
12884;SDS011;6510;51.362;7.370;2023-01-15T15:55:55;2.80;;;0.80;;
12884;SDS011;6510;51.362;7.370;2023-01-15T15:58:25;4.17;;;1.03;;
12884;SDS011;6510;51.362;7.370;2023-01-15T16:00:57;6.00;;;1.27;;
12884;SDS011;6510;51.362;7.370;2023-01-15T16:03:25;2.77;;;1.20;;
12884;SDS011;6510;51.362;7.370;2023-01-15T16:05:53;1.33;;;0.70;;
12884;SDS011;6510;51.362;7.370;2023-01-15T16:08:27;3.40;;;1.20;;
12884;SDS011;6510;51.362;7.370;2023-01-15T16:10:55;2.30;;;1.00;;
12884;SDS011;6510;51.362;7.370;2023-01-15T16:13:28;4.30;;;2.70;;
12884;SDS011;6510;51.362;7.370;2023-01-15T16:15:56;3.80;;;1.67;;
12884;SDS011;6510;51.362;7.370;2023-01-15T16:18:24;2.63;;;1.20;;
12884;SDS011;6510;51.362;7.370;2023-01-15T16:20:53;2.57;;;1.60;;
12884;SDS011;6510;51.362;7.370;2023-01-15T16:23:24;2.63;;;1.20;;
12884;SDS011;6510;51.362;7.370;2023-01-15T16:28:39;2.37;;;1.00;;
12884;SDS011;6510;51.362;7.370;2023-01-15T16:31:09;2.93;;;1.13;;
12884;SDS011;6510;51.362;7.370;2023-01-15T16:33:36;2.23;;;1.40;;
12884;SDS011;6510;51.362;7.370;2023-01-15T16:36:03;2.00;;;1.37;;
12884;SDS011;6510;51.362;7.370;2023-01-15T16:38:32;5.43;;;1.57;;
12884;SDS011;6510;51.362;7.370;2023-01-15T16:41:18;6.07;;;1.90;;
12884;SDS011;6510;51.362;7.370;2023-01-15T16:43:54;2.27;;;1.30;;
12884;SDS011;6510;51.362;7.370;2023-01-15T16:46:22;3.10;;;1.43;;
12884;SDS011;6510;51.362;7.370;2023-01-15T16:51:50;3.70;;;1.97;;
12884;SDS011;6510;51.362;7.370;2023-01-15T16:56:58;2.33;;;1.67;;
12884;SDS011;6510;51.362;7.370;2023-01-15T17:01:51;2.90;;;1.17;;
12884;SDS011;6510;51.362;7.370;2023-01-15T17:09:31;4.30;;;3.13;;
12884;SDS011;6510;51.362;7.370;2023-01-15T17:12:00;2.03;;;1.00;;
12884;SDS011;6510;51.362;7.370;2023-01-15T17:14:31;3.93;;;1.03;;
12884;SDS011;6510;51.362;7.370;2023-01-15T17:19:50;3.00;;;1.23;;
12884;SDS011;6510;51.362;7.370;2023-01-15T17:22:23;3.63;;;2.90;;
12884;SDS011;6510;51.362;7.370;2023-01-15T17:24:57;6.80;;;4.00;;
12884;SDS011;6510;51.362;7.370;2023-01-15T17:27:24;3.40;;;1.07;;
12884;SDS011;6510;51.362;7.370;2023-01-15T17:29:52;1.87;;;1.10;;
12884;SDS011;6510;51.362;7.370;2023-01-15T17:32:33;5.47;;;1.97;;
12884;SDS011;6510;51.362;7.370;2023-01-15T17:35:21;5.27;;;2.03;;
12884;SDS011;6510;51.362;7.370;2023-01-15T17:37:47;4.23;;;1.70;;